Time;durP1;ratioP1;P1;durP2;ratioP2;P2;SDS_P1;SDS_P2;PMS_P1;PMS_P2;Temp;Humidity;BMP_temperature;BMP_pressure;BME280_temperature;BME280_humidity;BME280_pressure;Samples;Min_cycle;Max_cycle;Signal;HPM_P1;HPM_P2
2023/12/17 00:01:00;;;;;;;10.10;8.60;;;;;;;10.21;47.84;103504.40;107074;1257;22530;-55
2023/12/17 00:03:27;;;;;;;10.00;8.20;;;;;;;10.23;47.80;103509.98;106830;1259;25494;-54
2023/12/17 00:05:54;;;;;;;9.90;8.00;;;;;;;10.23;47.83;103509.32;106336;1263;1003565;-55
2023/12/17 00:08:22;;;;;;;10.20;8.90;;;;;;;10.24;47.81;103516.10;107043;1263;22534;-55
2023/12/17 00:10:49;;;;;;;11.40;8.70;;;;;;;10.26;47.84;103521.68;106942;1266;25365;-55
2023/12/17 00:13:17;;;;;;;9.10;7.80;;;;;;;10.26;47.83;103514.41;107024;1256;23871;-55
2023/12/17 00:15:44;;;;;;;10.30;8.40;;;;;;;10.27;47.84;103517.73;107049;1263;25375;-55
2023/12/17 00:18:12;;;;;;;11.00;8.00;;;;;;;10.28;47.74;103516.36;107090;1258;25394;-55
2023/12/17 00:20:39;;;;;;;9.10;8.00;;;;;;;10.29;47.72;103517.24;107127;1263;25384;-55
2023/12/17 00:23:07;;;;;;;9.20;7.20;;;;;;;10.30;47.79;103521.44;106347;1267;1003090;-55
2023/12/17 00:25:34;;;;;;;10.10;7.20;;;;;;;10.30;47.70;103520.77;106690;1262;25439;-55
2023/12/17 00:28:01;;;;;;;8.20;6.80;;;;;;;10.31;47.73;103525.11;105745;1263;1002404;-55
2023/12/17 00:30:28;;;;;;;9.90;8.10;;;;;;;10.32;47.67;103525.13;106922;1256;24205;-55
2023/12/17 00:32:55;;;;;;;8.60;7.60;;;;;;;10.33;47.73;103521.50;106761;1256;25365;-55
2023/12/17 00:35:22;;;;;;;10.60;8.00;;;;;;;10.33;47.72;103519.24;106592;1269;22534;-55
2023/12/17 00:37:49;;;;;;;10.60;7.50;;;;;;;10.33;47.63;103517.86;107048;1264;25341;-55
2023/12/17 00:40:16;;;;;;;9.10;7.40;;;;;;;10.33;47.63;103516.13;106312;1266;1003052;-54
2023/12/17 00:42:44;;;;;;;9.90;7.70;;;;;;;10.33;47.68;103517.86;107069;1264;25334;-54
2023/12/17 00:45:11;;;;;;;8.20;6.60;;;;;;;10.33;47.75;103516.30;107071;1259;25494;-54
2023/12/17 00:47:38;;;;;;;8.00;6.40;;;;;;;10.33;47.69;103516.64;106764;1274;25357;-54
2023/12/17 00:50:06;;;;;;;7.90;6.10;;;;;;;10.33;47.64;103514.58;106635;1267;22527;-54
2023/12/17 00:52:33;;;;;;;7.10;5.80;;;;;;;10.33;47.59;103514.41;106829;1256;25344;-54
2023/12/17 00:55:00;;;;;;;7.20;6.00;;;;;;;10.34;47.72;103514.08;107076;1266;25416;-54
2023/12/17 00:57:28;;;;;;;8.00;6.20;;;;;;;10.35;47.66;103517.23;106432;1257;1002949;-54
2023/12/17 00:59:56;;;;;;;6.90;5.20;;;;;;;10.34;47.74;103522.42;106974;1267;25375;-56
2023/12/17 01:02:23;;;;;;;7.00;5.60;;;;;;;10.35;47.75;103525.19;106728;1267;22569;-56
2023/12/17 01:04:50;;;;;;;7.60;5.50;;;;;;;10.34;47.81;103530.22;107025;1251;25388;-58
2023/12/17 01:07:17;;;;;;;7.00;5.70;;;;;;;10.35;47.80;103532.66;107113;1251;24195;-56
2023/12/17 01:09:44;;;;;;;8.30;6.00;;;;;;;10.28;48.01;103532.14;107111;1255;25535;-53
2023/12/17 01:12:11;;;;;;;6.10;5.10;;;;;;;10.34;47.92;103525.36;106419;1267;1003412;-53
2023/12/17 01:14:38;;;;;;;7.20;6.10;;;;;;;10.35;47.90;103525.19;107130;1254;25507;-53
2023/12/17 01:17:07;;;;;;;7.40;5.30;;;;;;;10.34;47.85;103522.59;106880;1257;23862;-53
2023/12/17 01:19:34;;;;;;;7.30;5.60;;;;;;;10.29;48.03;103517.59;106326;1252;1003422;-53
2023/12/17 01:22:02;;;;;;;7.40;5.10;;;;;;;10.33;47.91;103513.52;106879;1254;26640;-54
2023/12/17 01:24:29;;;;;;;7.80;6.10;;;;;;;10.35;47.91;103514.45;107023;1257;25347;-54
2023/12/17 01:26:56;;;;;;;8.20;6.60;;;;;;;10.36;47.91;103516.19;106198;1267;1003502;-55
2023/12/17 01:29:23;;;;;;;9.20;5.90;;;;;;;10.36;47.88;103517.79;107114;1256;22649;-54
2023/12/17 01:31:50;;;;;;;8.00;5.60;;;;;;;10.37;47.87;103519.69;107140;1257;25337;-54
2023/12/17 01:34:19;;;;;;;8.40;6.10;;;;;;;10.37;47.89;103517.25;107093;1257;25484;-54
2023/12/17 01:36:46;;;;;;;7.00;5.30;;;;;;;10.37;48.02;103518.14;105929;1266;1016111;-54
2023/12/17 01:39:13;;;;;;;9.20;6.40;;;;;;;10.39;48.00;103515.06;107106;1252;25328;-54
2023/12/17 01:41:40;;;;;;;7.30;5.70;;;;;;;10.40;48.04;103511.25;106896;1267;25411;-54
2023/12/17 01:44:07;;;;;;;7.90;5.90;;;;;;;10.41;48.07;103516.16;107104;1260;25337;-54
2023/12/17 01:46:35;;;;;;;8.60;5.30;;;;;;;10.44;48.03;103511.17;106382;1257;1003103;-54
2023/12/17 01:49:02;;;;;;;6.80;5.30;;;;;;;10.46;47.97;103511.04;106381;1254;1003765;-54
2023/12/17 01:51:31;;;;;;;6.90;5.50;;;;;;;10.46;47.98;103509.84;106038;1270;1003692;-54
2023/12/17 01:53:59;;;;;;;7.80;5.20;;;;;;;10.47;48.01;103509.85;107042;1254;25399;-54
2023/12/17 01:56:26;;;;;;;6.00;5.20;;;;;;;10.48;48.10;103509.88;107094;1254;22530;-54
2023/12/17 01:58:53;;;;;;;10.00;6.40;;;;;;;10.48;47.97;103513.19;106374;1252;1003478;-54
2023/12/17 02:01:21;;;;;;;6.70;5.70;;;;;;;10.48;48.08;103515.45;106999;1264;24034;-54
2023/12/17 02:03:48;;;;;;;8.20;5.40;;;;;;;10.48;48.02;103511.45;106819;1266;22538;-54
2023/12/17 02:06:15;;;;;;;5.80;5.10;;;;;;;10.49;47.95;103510.94;107022;1252;24230;-54
2023/12/17 02:08:42;;;;;;;8.50;5.70;;;;;;;10.50;48.10;103509.74;107134;1264;25375;-54
2023/12/17 02:11:09;;;;;;;6.80;5.80;;;;;;;10.50;48.10;103503.51;107245;1256;25366;-54
2023/12/17 02:13:36;;;;;;;7.70;5.60;;;;;;;10.51;48.10;103497.79;107178;1254;25497;-54
2023/12/17 02:16:04;;;;;;;8.60;5.60;;;;;;;10.50;48.14;103495.70;107147;1258;25337;-54
2023/12/17 02:18:31;;;;;;;7.40;5.80;;;;;;;10.51;48.13;103496.58;106836;1257;22775;-54
2023/12/17 02:20:58;;;;;;;8.10;6.00;;;;;;;10.51;48.08;103499.36;107099;1263;25347;-54
2023/12/17 02:23:25;;;;;;;8.50;6.20;;;;;;;10.52;48.14;103500.41;107014;1264;25468;-54
2023/12/17 02:25:52;;;;;;;8.70;6.50;;;;;;;10.52;48.08;103496.96;107164;1264;25375;-54
2023/12/17 02:28:19;;;;;;;10.10;6.20;;;;;;;10.53;48.10;103492.83;106973;1270;25398;-54
2023/12/17 02:30:46;;;;;;;9.90;6.70;;;;;;;10.53;48.10;103492.83;106816;1274;25439;-54
2023/12/17 02:33:13;;;;;;;8.70;6.30;;;;;;;10.53;48.00;103488.15;107058;1256;25350;-54
2023/12/17 02:35:41;;;;;;;10.40;6.40;;;;;;;10.54;48.09;103485.02;107154;1258;25424;-54
2023/12/17 02:38:08;;;;;;;8.00;6.50;;;;;;;10.55;48.10;103482.62;107119;1258;25357;-54
2023/12/17 02:40:35;;;;;;;8.10;6.50;;;;;;;10.55;48.16;103485.23;107096;1267;25443;-54
2023/12/17 02:43:02;;;;;;;7.80;6.60;;;;;;;10.56;48.12;103484.89;106901;1267;25325;-54
2023/12/17 02:45:29;;;;;;;8.30;6.20;;;;;;;10.56;48.15;103485.25;107216;1257;25362;-54
2023/12/17 02:47:56;;;;;;;7.00;5.80;;;;;;;10.55;48.06;103486.27;107091;1254;25493;-54
2023/12/17 02:50:23;;;;;;;9.20;6.30;;;;;;;10.53;48.18;103482.23;106779;1261;25382;-55
2023/12/17 02:52:50;;;;;;;9.00;6.20;;;;;;;10.56;48.10;103477.45;106619;1257;22510;-56
2023/12/17 02:55:17;;;;;;;8.80;6.20;;;;;;;10.57;48.06;103472.77;106901;1257;25497;-56
2023/12/17 02:57:44;;;;;;;10.50;5.80;;;;;;;10.57;48.16;103469.13;107092;1257;25369;-54
2023/12/17 03:00:11;;;;;;;9.30;6.10;;;;;;;10.57;48.10;103468.61;107092;1254;25366;-54
2023/12/17 03:02:38;;;;;;;8.70;6.00;;;;;;;10.57;48.19;103463.06;106919;1254;22613;-54
2023/12/17 03:05:06;;;;;;;9.20;7.00;;;;;;;10.57;48.28;103463.40;107016;1259;25357;-54
2023/12/17 03:07:33;;;;;;;9.80;5.90;;;;;;;10.56;48.20;103469.11;107114;1251;25304;-54
2023/12/17 03:09:59;;;;;;;8.70;6.30;;;;;;;10.56;48.34;103473.27;107105;1257;25456;-55
2023/12/17 03:12:27;;;;;;;8.00;6.20;;;;;;;10.57;48.38;103475.37;107106;1264;23229;-55
2023/12/17 03:14:54;;;;;;;8.80;6.10;;;;;;;10.57;48.31;103480.77;107026;1251;24207;-54
2023/12/17 03:17:21;;;;;;;7.10;6.00;;;;;;;10.58;48.37;103481.64;107087;1251;25404;-54
2023/12/17 03:19:48;;;;;;;7.70;5.40;;;;;;;10.58;48.37;103480.95;107051;1257;25360;-55
2023/12/17 03:22:15;;;;;;;9.30;6.10;;;;;;;10.59;48.37;103488.45;107055;1254;25349;-54
2023/12/17 03:24:42;;;;;;;7.10;5.70;;;;;;;10.60;48.48;103492.80;106274;1250;1003056;-54
2023/12/17 03:27:08;;;;;;;8.10;6.10;;;;;;;10.61;48.60;103496.46;107090;1265;25366;-54
2023/12/17 03:29:35;;;;;;;9.20;6.50;;;;;;;10.61;48.56;103493.17;107152;1251;22527;-54
2023/12/17 03:32:03;;;;;;;9.90;6.20;;;;;;;10.62;48.51;103488.67;107183;1251;25372;-54
2023/12/17 03:34:30;;;;;;;7.90;5.70;;;;;;;10.62;48.55;103487.99;107070;1265;22527;-54
2023/12/17 03:36:58;;;;;;;8.00;5.90;;;;;;;10.62;48.50;103486.95;106981;1267;25337;-54
2023/12/17 03:39:25;;;;;;;6.40;5.40;;;;;;;10.62;48.50;103490.41;106327;1254;1003105;-55
2023/12/17 03:41:52;;;;;;;8.00;5.40;;;;;;;10.61;48.47;103487.96;107063;1251;22531;-55
2023/12/17 03:44:18;;;;;;;8.70;6.00;;;;;;;10.60;48.52;103490.18;107024;1254;22527;-55
2023/12/17 03:46:45;;;;;;;8.20;6.10;;;;;;;10.59;48.53;103496.61;107173;1256;22624;-54
2023/12/17 03:49:12;;;;;;;10.40;6.40;;;;;;;10.58;48.61;103499.54;106381;1251;1003278;-54
2023/12/17 03:51:39;;;;;;;8.80;6.10;;;;;;;10.58;48.63;103503.52;107073;1263;25347;-55
2023/12/17 03:54:06;;;;;;;7.10;6.00;;;;;;;10.57;48.65;103505.06;107130;1251;25340;-54
2023/12/17 03:56:33;;;;;;;8.70;6.50;;;;;;;10.57;48.70;103507.50;107057;1252;25408;-54
2023/12/17 03:59:00;;;;;;;8.70;6.60;;;;;;;10.56;48.71;103515.45;106941;1267;25856;-55
2023/12/17 04:01:28;;;;;;;11.80;7.30;;;;;;;10.55;48.86;103517.52;106769;1251;1003453;-55
2023/12/17 04:03:57;;;;;;;10.50;7.10;;;;;;;10.54;48.84;103512.98;106817;1259;25414;-54
2023/12/17 04:06:24;;;;;;;9.00;6.90;;;;;;;10.54;48.90;103509.86;107162;1256;22560;-55
2023/12/17 04:08:52;;;;;;;8.40;7.20;;;;;;;10.54;48.93;103511.23;107036;1257;25375;-54
2023/12/17 04:11:22;;;;;;;11.20;7.50;;;;;;;10.54;48.97;103512.10;107081;1251;22538;-54
2023/12/17 04:13:49;;;;;;;9.50;7.10;;;;;;;10.53;48.97;103515.21;107098;1262;25351;-54
2023/12/17 04:16:16;;;;;;;9.80;7.10;;;;;;;10.52;48.94;103517.80;107187;1251;25415;-54
2023/12/17 04:18:43;;;;;;;9.00;7.10;;;;;;;10.52;49.12;103520.23;107033;1256;25355;-54
2023/12/17 04:21:10;;;;;;;9.10;7.20;;;;;;;10.52;48.93;103524.55;106949;1254;25497;-54
2023/12/17 04:23:37;;;;;;;10.10;7.80;;;;;;;10.51;49.00;103525.73;107136;1258;25426;-55
2023/12/17 04:26:04;;;;;;;8.10;7.30;;;;;;;10.50;49.09;103522.95;106321;1257;1002921;-54
2023/12/17 04:28:31;;;;;;;9.70;7.50;;;;;;;10.50;49.07;103522.93;107158;1257;25497;-55
2023/12/17 04:30:58;;;;;;;11.50;7.60;;;;;;;10.49;49.07;103523.96;107045;1257;25384;-55
2023/12/17 04:33:25;;;;;;;9.30;8.00;;;;;;;10.48;49.05;103523.77;107106;1263;22573;-54
2023/12/17 04:35:52;;;;;;;10.80;8.60;;;;;;;10.46;49.20;103522.69;107100;1254;25385;-54
2023/12/17 04:38:19;;;;;;;10.60;7.90;;;;;;;10.46;49.18;103519.90;107209;1254;25366;-54
2023/12/17 04:40:46;;;;;;;11.10;8.40;;;;;;;10.46;49.23;103514.16;106848;1257;25488;-57
2023/12/17 04:43:13;;;;;;;11.70;8.00;;;;;;;10.45;49.30;103514.31;106039;1269;1002997;-54
2023/12/17 04:45:40;;;;;;;10.40;7.80;;;;;;;10.44;49.26;103514.14;106888;1254;25383;-56
2023/12/17 04:48:07;;;;;;;10.80;8.80;;;;;;;10.43;49.19;103517.23;107156;1254;25347;-54
2023/12/17 04:50:34;;;;;;;10.50;8.50;;;;;;;10.42;49.33;103518.27;107095;1251;25359;-54
2023/12/17 04:53:02;;;;;;;10.60;8.90;;;;;;;10.44;49.37;103522.98;107091;1254;25488;-54
2023/12/17 04:55:29;;;;;;;10.10;8.30;;;;;;;10.45;49.40;103527.49;107019;1251;25353;-54
2023/12/17 04:57:55;;;;;;;13.50;9.30;;;;;;;10.45;49.41;103529.23;107118;1257;25366;-54
2023/12/17 05:00:22;;;;;;;14.30;8.90;;;;;;;10.44;49.34;103526.45;107124;1251;24302;-54
2023/12/17 05:02:50;;;;;;;10.80;8.90;;;;;;;10.44;49.38;103523.67;107088;1254;25398;-54
2023/12/17 05:05:17;;;;;;;11.30;8.80;;;;;;;10.42;49.46;103523.30;107123;1254;25799;-54
2023/12/17 05:07:45;;;;;;;10.50;9.30;;;;;;;10.42;49.46;103526.39;106941;1257;25338;-54
2023/12/17 05:10:12;;;;;;;11.60;8.80;;;;;;;10.41;49.47;103525.86;107111;1263;25497;-54
2023/12/17 05:12:38;;;;;;;15.00;9.10;;;;;;;10.41;49.48;103522.04;107124;1250;25343;-54
2023/12/17 05:15:06;;;;;;;10.60;8.90;;;;;;;10.41;49.51;103523.44;107121;1256;24353;-54
2023/12/17 05:17:34;;;;;;;12.50;9.20;;;;;;;10.41;49.56;103521.69;107176;1251;25430;-54
2023/12/17 05:20:01;;;;;;;11.80;9.90;;;;;;;10.41;49.55;103523.42;107145;1251;25430;-54
2023/12/17 05:22:28;;;;;;;13.40;10.20;;;;;;;10.40;49.59;103523.60;106852;1257;25337;-53
2023/12/17 05:24:55;;;;;;;11.80;9.90;;;;;;;10.40;49.55;103524.29;107088;1254;25417;-54
2023/12/17 05:27:22;;;;;;;12.10;9.70;;;;;;;10.40;49.54;103525.99;107140;1254;25347;-54
2023/12/17 05:29:49;;;;;;;13.40;10.50;;;;;;;10.39;49.51;103523.39;107036;1257;25347;-54
2023/12/17 05:32:16;;;;;;;13.40;9.80;;;;;;;10.38;49.42;103522.33;106384;1266;1003107;-55
2023/12/17 05:34:43;;;;;;;13.30;10.40;;;;;;;10.37;49.52;103518.83;107071;1253;25360;-54
2023/12/17 05:37:10;;;;;;;11.50;9.60;;;;;;;10.36;49.49;103518.64;106921;1258;25385;-54
2023/12/17 05:39:37;;;;;;;14.50;10.60;;;;;;;10.35;49.41;103518.09;106926;1257;24363;-54
2023/12/17 05:42:04;;;;;;;12.30;10.20;;;;;;;10.32;49.41;103514.05;106882;1260;25365;-54
2023/12/17 05:44:31;;;;;;;14.00;11.00;;;;;;;10.31;49.48;103507.60;106994;1269;25400;-54
2023/12/17 05:46:58;;;;;;;13.10;10.10;;;;;;;10.31;49.25;103507.93;107153;1257;25815;-54
2023/12/17 05:49:25;;;;;;;12.60;10.30;;;;;;;10.30;49.28;103506.70;107016;1255;25357;-54
2023/12/17 05:51:53;;;;;;;11.40;10.00;;;;;;;10.27;49.18;103510.45;107068;1254;25338;-54
2023/12/17 05:54:20;;;;;;;15.30;10.70;;;;;;;10.24;49.32;103511.75;106832;1257;25369;-54
2023/12/17 05:56:47;;;;;;;13.30;11.20;;;;;;;10.21;49.35;103512.04;106878;1256;25339;-54
2023/12/17 05:59:14;;;;;;;14.90;11.30;;;;;;;10.18;49.36;103514.56;107193;1254;25408;-54
2023/12/17 06:01:41;;;;;;;16.60;11.50;;;;;;;10.17;49.29;103514.36;106768;1258;25353;-54
2023/12/17 06:04:08;;;;;;;13.70;11.30;;;;;;;10.13;49.22;103512.52;107141;1254;25357;-54
2023/12/17 06:06:36;;;;;;;13.30;10.30;;;;;;;10.11;49.30;103507.44;107088;1254;25497;-54
2023/12/17 06:09:03;;;;;;;13.60;11.60;;;;;;;10.08;49.30;103513.42;107151;1257;25360;-54
2023/12/17 06:11:30;;;;;;;13.50;10.90;;;;;;;10.05;49.27;103514.39;106864;1259;25510;-54
2023/12/17 06:13:57;;;;;;;12.80;11.00;;;;;;;10.02;49.35;103516.75;106887;1266;25391;-54
2023/12/17 06:16:24;;;;;;;15.40;11.80;;;;;;;10.01;49.42;103513.77;107070;1261;23245;-54
2023/12/17 06:18:53;;;;;;;11.10;9.50;;;;;;;10.00;49.40;103514.27;107038;1257;24257;-54
2023/12/17 06:21:22;;;;;;;14.60;11.70;;;;;;;9.99;49.29;103516.15;106359;1266;1003080;-55
2023/12/17 06:23:50;;;;;;;13.90;11.60;;;;;;;9.99;49.38;103520.13;106358;1254;1003203;-55
2023/12/17 06:26:20;;;;;;;13.80;10.90;;;;;;;9.99;49.26;103517.87;106894;1269;25350;-55
2023/12/17 06:28:47;;;;;;;13.50;10.50;;;;;;;9.97;49.30;103520.26;106378;1267;1003022;-54
2023/12/17 06:31:14;;;;;;;13.10;10.30;;;;;;;9.97;49.30;103522.52;107113;1254;25401;-57
2023/12/17 06:33:42;;;;;;;14.20;11.10;;;;;;;9.96;49.39;103522.30;106921;1257;25385;-56
2023/12/17 06:36:09;;;;;;;14.10;9.90;;;;;;;9.97;49.26;103524.23;106132;1256;1003755;-55
2023/12/17 06:38:38;;;;;;;15.20;11.70;;;;;;;9.98;49.30;103521.67;106938;1251;25341;-56
2023/12/17 06:41:05;;;;;;;12.90;10.50;;;;;;;9.99;49.28;103526.37;107068;1251;22599;-55
2023/12/17 06:43:32;;;;;;;15.50;11.60;;;;;;;10.01;49.29;103527.45;107027;1250;23893;-54
2023/12/17 06:46:00;;;;;;;13.50;10.90;;;;;;;10.02;49.13;103526.45;106831;1254;22520;-54
2023/12/17 06:48:27;;;;;;;14.10;11.00;;;;;;;10.04;49.32;103525.96;106928;1260;25378;-54
2023/12/17 06:50:54;;;;;;;14.50;11.30;;;;;;;10.06;49.19;103525.15;106869;1257;25334;-54
2023/12/17 06:53:21;;;;;;;13.00;10.70;;;;;;;10.08;49.27;103522.61;106778;1269;25348;-56
2023/12/17 06:55:48;;;;;;;14.00;11.30;;;;;;;10.11;49.16;103522.20;106867;1256;25458;-56
2023/12/17 06:58:15;;;;;;;15.60;11.70;;;;;;;10.14;49.07;103524.71;106871;1267;25357;-55
2023/12/17 07:00:43;;;;;;;13.20;10.80;;;;;;;10.17;49.08;103525.99;107075;1253;25519;-55
2023/12/17 07:03:10;;;;;;;15.90;11.30;;;;;;;10.21;49.09;103522.25;106838;1260;25347;-55
2023/12/17 07:05:38;;;;;;;13.10;10.90;;;;;;;10.24;48.93;103523.37;106841;1260;25497;-55
2023/12/17 07:08:05;;;;;;;13.60;9.70;;;;;;;10.26;48.92;103523.41;106871;1256;25350;-56
2023/12/17 07:10:33;;;;;;;14.20;10.60;;;;;;;10.27;48.94;103524.84;106730;1262;25516;-55
2023/12/17 07:13:00;;;;;;;13.30;10.30;;;;;;;10.31;48.93;103530.48;106797;1256;25300;-55
2023/12/17 07:15:27;;;;;;;12.30;9.90;;;;;;;10.33;48.87;103539.19;107039;1254;25401;-55
2023/12/17 07:17:55;;;;;;;12.60;10.20;;;;;;;10.34;48.82;103538.36;106963;1250;25375;-54
2023/12/17 07:20:23;;;;;;;16.80;12.70;;;;;;;10.35;48.91;103536.82;106682;1259;25368;-55
2023/12/17 07:22:50;;;;;;;13.10;11.20;;;;;;;10.37;48.76;103533.40;106831;1256;25369;-55
2023/12/17 07:25:19;;;;;;;13.20;10.30;;;;;;;10.39;48.85;103530.17;106661;1260;25568;-55
2023/12/17 07:27:46;;;;;;;12.00;10.20;;;;;;;10.43;48.78;103532.50;106130;1257;1003551;-55
2023/12/17 07:30:15;;;;;;;14.40;10.50;;;;;;;10.46;48.82;103534.30;106830;1267;25450;-55
2023/12/17 07:32:43;;;;;;;13.30;9.90;;;;;;;10.49;48.90;103535.76;106966;1253;25378;-55
2023/12/17 07:35:11;;;;;;;13.40;10.50;;;;;;;10.52;48.93;103536.00;107117;1259;25425;-55
2023/12/17 07:37:38;;;;;;;13.90;10.40;;;;;;;10.55;49.05;103534.00;110571;1274;23088;-55
2023/12/17 07:40:06;;;;;;;12.60;10.50;;;;;;;10.61;49.18;103532.92;110628;1257;22180;-55
2023/12/17 07:42:33;;;;;;;15.60;10.70;;;;;;;10.67;49.17;103529.58;110611;1252;22176;-55
2023/12/17 07:45:00;;;;;;;13.50;10.40;;;;;;;10.75;49.24;103526.11;110665;1260;22303;-53
2023/12/17 07:47:30;;;;;;;12.90;10.00;;;;;;;10.85;49.19;103528.22;110593;1256;22160;-53
2023/12/17 07:49:57;;;;;;;12.00;10.10;;;;;;;10.93;49.08;103521.80;110699;1251;22203;-53
2023/12/17 07:52:24;;;;;;;12.70;10.40;;;;;;;11.02;49.04;103519.20;110592;1250;22276;-53
2023/12/17 07:54:53;;;;;;;14.30;10.30;;;;;;;11.12;49.00;103518.54;110650;1254;22447;-53
2023/12/17 07:57:20;;;;;;;13.90;10.70;;;;;;;11.21;48.95;103522.55;110641;1257;22330;-53
2023/12/17 07:59:47;;;;;;;13.40;9.30;;;;;;;11.30;48.63;103517.85;109830;1254;1002822;-54
2023/12/17 08:02:14;;;;;;;12.80;9.90;;;;;;;11.37;48.54;103521.65;110638;1263;22311;-53
2023/12/17 08:04:42;;;;;;;12.20;10.10;;;;;;;11.43;48.37;103527.84;110410;1259;22308;-53
2023/12/17 08:07:11;;;;;;;12.60;10.50;;;;;;;11.51;48.37;103529.90;110597;1254;23075;-53
2023/12/17 08:09:39;;;;;;;12.00;9.60;;;;;;;11.58;48.31;103531.42;110690;1250;22963;-53
2023/12/17 08:12:06;;;;;;;12.40;10.90;;;;;;;11.65;48.22;103530.31;110628;1254;22447;-53
2023/12/17 08:14:33;;;;;;;13.50;10.40;;;;;;;11.72;48.22;103535.35;110629;1254;22080;-53
2023/12/17 08:17:00;;;;;;;15.20;10.10;;;;;;;11.79;48.05;103535.48;110657;1256;22482;-53
2023/12/17 08:19:27;;;;;;;12.70;10.70;;;;;;;11.85;47.84;103531.60;109897;1254;1002994;-53
2023/12/17 08:21:57;;;;;;;13.20;11.20;;;;;;;11.91;47.71;103530.82;110623;1263;22108;-53
2023/12/17 08:24:25;;;;;;;16.50;10.70;;;;;;;11.98;47.73;103525.19;110680;1253;22128;-53
2023/12/17 08:26:54;;;;;;;10.40;9.00;;;;;;;12.03;47.62;103523.70;110666;1266;22122;-53
2023/12/17 08:29:21;;;;;;;11.60;9.10;;;;;;;11.98;47.61;103518.77;109833;1250;1002969;-53
2023/12/17 08:31:48;;;;;;;11.40;9.20;;;;;;;12.08;47.29;103515.77;110540;1256;22295;-53
2023/12/17 08:34:15;;;;;;;11.20;9.20;;;;;;;12.12;47.09;103510.11;110604;1253;22433;-53
2023/12/17 08:36:43;;;;;;;11.70;9.90;;;;;;;12.15;47.04;103501.81;110432;1256;22428;-53
2023/12/17 08:39:11;;;;;;;12.10;9.70;;;;;;;12.19;47.04;103498.03;110517;1256;23153;-53
2023/12/17 08:41:38;;;;;;;13.40;11.00;;;;;;;12.23;47.03;103490.94;109667;1256;1002308;-53
2023/12/17 08:44:05;;;;;;;14.50;11.10;;;;;;;12.27;47.01;103487.90;110417;1269;22482;-53
2023/12/17 08:46:32;;;;;;;20.20;13.00;;;;;;;12.31;46.99;103479.60;109843;1256;1002480;-54
2023/12/17 08:48:59;;;;;;;16.20;12.40;;;;;;;12.35;46.85;103478.43;110683;1261;22921;-53
2023/12/17 08:51:26;;;;;;;15.60;11.70;;;;;;;12.39;46.81;103472.55;109811;1274;1002363;-53
2023/12/17 08:53:54;;;;;;;14.80;11.00;;;;;;;12.44;46.59;103468.97;110588;1266;22304;-53
2023/12/17 08:56:20;;;;;;;13.00;9.70;;;;;;;12.47;46.61;103469.55;109842;1270;1002451;-53
2023/12/17 08:58:49;;;;;;;12.80;10.70;;;;;;;12.50;46.44;103466.64;110439;1274;22625;-53
2023/12/17 09:01:17;;;;;;;14.90;11.20;;;;;;;12.53;46.46;103458.82;110177;1275;22469;-53
2023/12/17 09:03:44;;;;;;;15.10;11.10;;;;;;;12.54;46.50;103456.23;110597;1267;23035;-53
2023/12/17 09:06:12;;;;;;;14.70;10.70;;;;;;;12.57;46.59;103452.27;110599;1267;22276;-54
2023/12/17 09:08:39;;;;;;;15.90;11.30;;;;;;;12.58;46.53;103451.59;109847;1274;1002487;-55
2023/12/17 09:11:06;;;;;;;13.30;9.70;;;;;;;12.59;46.54;103447.77;110580;1267;23044;-53
2023/12/17 09:13:33;;;;;;;11.90;8.90;;;;;;;12.61;46.65;103442.21;110637;1266;22791;-53
2023/12/17 09:16:00;;;;;;;9.90;8.70;;;;;;;12.63;46.59;103444.84;110444;1267;22175;-53
2023/12/17 09:18:27;;;;;;;12.00;8.70;;;;;;;12.66;46.58;103435.49;110608;1267;22380;-54
2023/12/17 09:20:54;;;;;;;10.70;8.50;;;;;;;12.70;46.55;103435.73;110501;1274;22147;-53
2023/12/17 09:23:21;;;;;;;9.50;7.90;;;;;;;12.74;46.39;103433.50;110495;1267;22310;-53
2023/12/17 09:25:48;;;;;;;8.80;7.50;;;;;;;12.78;46.18;103427.45;109687;1274;1002475;-53
2023/12/17 09:28:15;;;;;;;8.30;7.20;;;;;;;12.81;45.99;103420.67;110651;1266;22236;-55
2023/12/17 09:30:42;;;;;;;10.70;8.90;;;;;;;12.82;45.93;103414.43;110401;1274;22299;-54
2023/12/17 09:33:09;;;;;;;10.50;8.50;;;;;;;12.83;45.88;103408.88;110579;1272;22334;-53
2023/12/17 09:35:38;;;;;;;10.30;8.20;;;;;;;12.83;45.69;103394.75;110380;1266;23049;-53
2023/12/17 09:38:05;;;;;;;13.00;9.60;;;;;;;12.82;45.70;103390.73;110608;1267;22356;-54
2023/12/17 09:40:38;;;;;;;12.50;10.40;;;;;;;12.83;45.76;103394.59;110418;1273;22191;-53
2023/12/17 09:43:05;;;;;;;13.60;9.90;;;;;;;12.82;45.92;103393.17;110651;1266;22149;-53
2023/12/17 09:45:32;;;;;;;14.10;9.50;;;;;;;12.82;45.85;103389.69;110610;1266;22316;-53
2023/12/17 09:47:59;;;;;;;11.50;9.10;;;;;;;12.82;45.86;103386.73;110431;1273;22804;-53
2023/12/17 09:50:27;;;;;;;11.90;8.40;;;;;;;12.82;45.79;103383.07;110620;1266;22464;-53
2023/12/17 09:52:54;;;;;;;9.50;8.50;;;;;;;12.81;45.70;103377.31;110599;1274;23177;-53
2023/12/17 09:55:21;;;;;;;10.50;8.40;;;;;;;12.80;45.73;103372.94;110416;1267;22286;-53
2023/12/17 09:57:48;;;;;;;10.80;9.40;;;;;;;12.83;45.80;103368.10;109819;1274;1003070;-53
2023/12/17 10:00:15;;;;;;;12.70;9.70;;;;;;;12.86;45.85;103356.64;110594;1270;22394;-53
2023/12/17 10:02:43;;;;;;;18.40;15.10;;;;;;;12.89;45.82;103353.89;110464;1274;22571;-53
2023/12/17 10:05:10;;;;;;;13.90;10.20;;;;;;;12.93;45.74;103353.23;110548;1274;22270;-53
2023/12/17 10:07:37;;;;;;;14.80;11.30;;;;;;;12.97;45.50;103352.39;110501;1267;22304;-53
2023/12/17 10:10:07;;;;;;;11.90;9.70;;;;;;;13.02;45.40;103352.43;110606;1266;23168;-54
2023/12/17 10:12:35;;;;;;;11.30;8.90;;;;;;;13.06;45.15;103348.84;110432;1269;22292;-53
2023/12/17 10:15:02;;;;;;;15.50;11.80;;;;;;;13.11;44.95;103345.40;109854;1266;1003209;-53
2023/12/17 10:17:29;;;;;;;14.00;11.70;;;;;;;13.15;44.75;103340.73;110585;1274;22104;-53
2023/12/17 10:19:57;;;;;;;14.20;9.20;;;;;;;13.18;44.29;103341.11;110594;1274;22365;-53
2023/12/17 10:22:24;;;;;;;9.30;8.20;;;;;;;13.22;43.78;103332.61;109839;1270;1002903;-53
2023/12/17 10:24:51;;;;;;;10.30;9.20;;;;;;;13.26;43.34;103327.92;110591;1267;22380;-55
2023/12/17 10:27:19;;;;;;;9.00;8.10;;;;;;;13.31;42.97;103329.89;110583;1274;22438;-54
2023/12/17 10:29:50;;;;;;;11.00;8.20;;;;;;;13.38;42.63;103325.23;110630;1266;22299;-53
2023/12/17 10:32:22;;;;;;;7.20;6.50;;;;;;;13.44;42.26;103320.73;110612;1274;22253;-53
2023/12/17 10:34:50;;;;;;;6.90;5.70;;;;;;;13.49;41.82;103311.55;110209;1274;22459;-53
2023/12/17 10:37:19;;;;;;;8.80;6.00;;;;;;;13.51;41.64;103305.27;110583;1273;22116;-53
2023/12/17 10:39:50;;;;;;;6.90;6.20;;;;;;;13.53;41.52;103302.34;110608;1266;22308;-53
2023/12/17 10:42:17;;;;;;;5.70;5.10;;;;;;;13.57;41.44;103299.56;110633;1266;23157;-53
2023/12/17 10:44:48;;;;;;;6.50;5.30;;;;;;;13.61;41.44;103297.48;110378;1271;22291;-53
2023/12/17 10:47:23;;;;;;;6.10;5.50;;;;;;;13.64;41.17;103294.38;110228;1274;22399;-53
2023/12/17 10:49:53;;;;;;;6.40;5.30;;;;;;;13.66;40.81;103296.13;110412;1274;23119;-53
2023/12/17 10:52:23;;;;;;;6.30;5.00;;;;;;;13.69;40.54;103299.46;109794;1274;1002749;-53
2023/12/17 10:54:50;;;;;;;6.90;5.80;;;;;;;13.71;40.44;103292.32;110588;1270;23053;-53
2023/12/17 10:57:21;;;;;;;6.10;5.00;;;;;;;13.72;40.41;103288.48;110579;1266;22374;-53
2023/12/17 10:59:48;;;;;;;7.00;5.30;;;;;;;13.73;39.88;103291.29;110560;1269;22586;-54
2023/12/17 11:02:16;;;;;;;5.70;5.00;;;;;;;13.74;39.75;103292.16;110612;1274;22444;-53
2023/12/17 11:04:46;;;;;;;6.20;5.40;;;;;;;13.73;39.62;103284.83;110558;1274;22308;-53
2023/12/17 11:07:17;;;;;;;7.20;5.70;;;;;;;13.67;39.81;103283.56;110240;1273;22275;-53
2023/12/17 11:10:01;;;;;;;6.70;5.10;;;;;;;13.70;39.89;103283.77;110560;1272;22143;-53